createdAt,value
2023-03-23T15:57:58.033Z,100010.16
2023-03-23T16:00:29.709Z,100074.03
2023-03-23T16:03:00.383Z,100069.88
2023-03-23T16:05:27.805Z,100046.06
2023-03-23T16:07:54.840Z,99994.47
2023-03-23T16:10:23.811Z,100067.16
2023-03-23T16:12:50.698Z,99967.97
2023-03-23T16:15:17.603Z,99985.97
2023-03-23T16:17:44.925Z,99999.94
2023-03-23T16:20:21.744Z,100096.56
2023-03-23T16:22:49.976Z,100095.13
2023-03-23T16:25:17.090Z,100013.03
2023-03-23T16:27:44.008Z,100073.72
2023-03-23T16:30:16.067Z,100082.66
2023-03-23T16:32:43.757Z,100012.56
2023-03-23T16:35:10.938Z,100053.38
2023-03-23T16:37:37.627Z,100090.72
2023-03-23T16:40:06.202Z,100058.84
2023-03-23T16:42:32.736Z,100013.84
2023-03-23T16:44:59.267Z,100043.72
2023-03-23T16:47:25.858Z,100034.66
2023-03-23T16:49:53.931Z,100102.72
2023-03-23T16:52:20.987Z,100094.47
2023-03-23T16:54:47.679Z,100124.75
2023-03-23T16:57:14.531Z,100045.63
2023-03-23T16:59:41.114Z,100129.03
2023-03-23T17:02:11.238Z,100094.25
2023-03-23T17:04:42.985Z,100121.34
2023-03-23T17:07:09.862Z,100068.72
2023-03-23T17:09:36.518Z,100074.16
2023-03-23T17:12:03.231Z,100081.31
2023-03-23T17:14:29.764Z,100021.38
2023-03-23T17:16:56.830Z,100076.28
2023-03-23T17:19:23.606Z,100036.56
2023-03-23T17:21:51.453Z,100101.19
2023-03-23T17:24:18.775Z,100101.47
2023-03-23T17:26:45.435Z,100074.19
2023-03-23T17:29:12.144Z,100004.66
2023-03-23T17:31:39.119Z,100015.38
2023-03-23T17:34:05.861Z,100103.78
2023-03-23T17:36:32.667Z,100001.41
2023-03-23T17:38:59.560Z,100058.00
2023-03-23T17:41:26.158Z,100020.94
2023-03-23T17:43:52.800Z,100005.09
2023-03-23T17:46:19.457Z,100093.53
2023-03-23T17:48:46.403Z,99997.09
2023-03-23T17:51:13.159Z,100017.47
2023-03-23T17:53:39.847Z,100068.88
2023-03-23T17:56:07.065Z,100005.25
2023-03-23T17:58:35.266Z,100064.44
2023-03-23T18:01:22.469Z,100050.34
2023-03-23T18:03:49.055Z,100068.09
2023-03-23T18:06:15.721Z,100007.09
2023-03-23T18:08:42.442Z,100072.53
2023-03-23T18:11:09.052Z,100075.22
2023-03-23T18:13:36.924Z,100076.06
2023-03-23T18:16:05.080Z,100042.41
2023-03-23T18:18:32.241Z,100076.84
2023-03-23T18:21:05.676Z,99987.47
2023-03-23T18:23:39.008Z,99966.25
2023-03-23T18:26:13.573Z,100040.47
2023-03-23T18:28:40.539Z,99953.03
2023-03-23T18:31:10.556Z,99967.22
2023-03-23T18:33:38.702Z,100045.09
2023-03-23T18:36:06.334Z,100039.88
2023-03-23T18:38:33.181Z,99977.09
2023-03-23T18:40:59.817Z,100039.91
2023-03-23T18:43:27.277Z,100015.97
2023-03-23T18:45:56.306Z,100005.31
2023-03-23T18:48:24.160Z,100045.97
2023-03-23T18:50:54.205Z,100042.44
2023-03-23T18:53:22.026Z,100041.50
2023-03-23T18:55:49.976Z,100000.78
2023-03-23T18:58:17.833Z,99960.91
2023-03-23T19:00:45.214Z,100024.50
2023-03-23T19:03:13.644Z,99948.47
2023-03-23T19:05:41.748Z,99937.78
2023-03-23T19:08:09.190Z,100012.03
2023-03-23T19:10:40.896Z,99941.34
2023-03-23T19:13:08.695Z,99983.66
2023-03-23T19:15:41.914Z,100021.66
2023-03-23T19:18:08.780Z,99935.94
2023-03-23T19:21:00.419Z,100008.34
2023-03-23T19:23:23.066Z,99934.97
2023-03-23T19:25:50.098Z,99974.69
2023-03-23T19:30:48.113Z,99912.69
2023-03-23T19:33:15.383Z,99982.47
2023-03-23T19:35:42.718Z,99895.03
2023-03-23T19:38:11.454Z,99979.81
2023-03-23T19:40:42.045Z,99888.91
2023-03-23T19:43:09.292Z,99943.66
2023-03-23T19:45:36.434Z,99910.94
2023-03-23T19:48:02.955Z,99972.75
2023-03-23T19:50:29.604Z,99849.94
2023-03-23T19:52:58.681Z,99969.13
2023-03-23T19:55:26.695Z,99946.19
2023-03-23T19:57:53.212Z,99868.47
2023-03-23T20:00:19.897Z,99941.69
2023-03-23T20:02:47.370Z,99874.47
2023-03-23T20:05:14.078Z,99944.19
2023-03-23T20:07:42.816Z,99880.66
2023-03-23T20:10:12.890Z,99962.63
2023-03-23T20:12:39.460Z,99841.75
2023-03-23T20:15:07.415Z,99958.28
2023-03-23T20:17:33.921Z,99962.59
2023-03-23T20:20:01.549Z,99940.69
2023-03-23T20:22:28.541Z,99952.97
2023-03-23T20:24:55.054Z,99953.16
2023-03-23T20:27:21.966Z,99946.94
2023-03-23T20:29:48.631Z,99877.25
2023-03-23T20:32:15.305Z,99964.88
2023-03-23T20:34:41.922Z,99869.41
2023-03-23T20:37:15.837Z,99948.16
2023-03-23T20:39:42.446Z,99935.84
2023-03-23T20:42:09.568Z,99920.94
2023-03-23T20:44:39.336Z,99855.63
2023-03-23T20:47:07.914Z,99936.03
2023-03-23T20:49:37.266Z,99860.03
2023-03-23T20:52:08.331Z,99838.84
2023-03-23T20:54:35.604Z,99893.66
2023-03-23T20:57:02.597Z,99836.28
2023-03-23T20:59:29.311Z,99848.63
2023-03-23T21:01:55.953Z,99855.72
2023-03-23T21:04:27.278Z,99882.22
2023-03-23T21:06:54.578Z,99881.38
2023-03-23T21:09:21.486Z,99907.81
2023-03-23T21:11:48.856Z,99859.31
2023-03-23T21:14:15.707Z,99925.56
2023-03-23T21:16:42.855Z,99912.28
2023-03-23T21:19:09.942Z,99840.78
2023-03-23T21:21:36.760Z,99884.09
2023-03-23T21:24:03.727Z,99901.72
2023-03-23T21:26:30.602Z,99856.59
2023-03-23T21:29:00.061Z,99812.47
2023-03-23T21:31:30.649Z,99677.50
2023-03-23T21:33:58.537Z,99854.81
2023-03-23T21:36:27.225Z,99853.91
2023-03-23T21:38:54.636Z,99867.16
2023-03-23T21:41:21.980Z,99785.91
2023-03-23T21:43:50.055Z,99862.72
2023-03-23T21:46:20.201Z,99882.97
2023-03-23T21:48:51.636Z,99785.00
2023-03-23T21:51:21.994Z,99806.97
2023-03-23T21:53:50.050Z,99794.56
2023-03-23T21:56:17.003Z,99870.38
2023-03-23T21:58:43.673Z,99779.41
2023-03-23T22:01:10.746Z,99752.94
2023-03-23T22:03:37.390Z,99826.13
2023-03-23T22:06:11.438Z,99860.59
2023-03-23T22:08:39.788Z,99852.66
2023-03-23T22:11:11.180Z,99832.28
2023-03-23T22:13:39.725Z,99761.66
2023-03-23T22:16:10.036Z,99763.44
2023-03-23T22:18:37.974Z,99762.53
2023-03-23T22:21:07.884Z,99763.50
2023-03-23T22:23:35.567Z,99758.25
2023-03-23T22:26:02.626Z,99757.38
2023-03-23T22:28:30.953Z,99806.84
2023-03-23T22:31:13.437Z,99827.16
2023-03-23T22:33:40.190Z,99799.72
2023-03-23T22:36:07.346Z,99741.63
2023-03-23T22:38:38.570Z,99785.75
2023-03-23T22:41:09.257Z,99690.53
2023-03-23T22:43:37.128Z,99807.84
2023-03-23T22:46:05.100Z,99722.31
2023-03-23T22:48:32.147Z,99693.13
2023-03-23T22:50:59.021Z,99793.75
2023-03-23T22:53:26.164Z,99688.81
2023-03-23T22:55:55.168Z,99739.94
2023-03-23T22:58:22.468Z,99792.97
2023-03-23T23:00:56.163Z,99701.22
2023-03-23T23:03:23.360Z,99689.75
2023-03-23T23:05:51.634Z,99778.00
2023-03-23T23:08:18.853Z,99773.53
2023-03-23T23:10:47.943Z,99766.41
2023-03-23T23:13:15.167Z,99683.56
2023-03-23T23:15:45.256Z,99723.22
2023-03-23T23:18:12.383Z,99751.47
2023-03-23T23:20:39.777Z,99714.41
2023-03-23T23:23:07.147Z,99689.69
2023-03-23T23:25:34.063Z,99716.09
2023-03-23T23:28:02.895Z,99718.75
2023-03-23T23:30:29.758Z,99705.56
2023-03-23T23:32:56.847Z,99731.94
2023-03-23T23:35:23.872Z,99660.53
2023-03-23T23:37:50.779Z,99700.94
2023-03-23T23:40:18.604Z,99713.34
2023-03-23T23:42:48.987Z,99709.88
2023-03-23T23:45:16.402Z,99619.78
2023-03-23T23:47:43.318Z,99632.09
2023-03-23T23:50:11.625Z,99685.75
2023-03-23T23:52:39.652Z,99618.81
2023-03-23T23:55:08.075Z,99668.97
2023-03-23T23:57:35.123Z,99684.75
